Time;durP1;ratioP1;P1;durP2;ratioP2;P2;SDS_P1;SDS_P2;PMS_P1;PMS_P2;Temp;Humidity;BMP_temperature;BMP_pressure;BME280_temperature;BME280_humidity;BME280_pressure;Samples;Min_cycle;Max_cycle;Signal;HPM_P1;HPM_P2
2021/07/22 00:02:15;;;;;;;7.05;3.83;;;23.20;52.70;;;;;;4901016;29;20103;-61
2021/07/22 00:04:40;;;;;;;7.45;3.97;;;23.20;52.80;;;;;;4901242;29;20047;-60
2021/07/22 00:07:06;;;;;;;8.80;4.88;;;23.20;52.80;;;;;;4900849;29;20112;-60
2021/07/22 00:09:31;;;;;;;7.40;4.18;;;23.10;52.80;;;;;;4900702;29;20036;-60
2021/07/22 00:11:57;;;;;;;7.88;4.57;;;23.10;52.90;;;;;;4906203;29;20033;-61
2021/07/22 00:14:23;;;;;;;7.10;4.35;;;23.20;52.90;;;;;;4910328;29;20024;-61
2021/07/22 00:16:48;;;;;;;8.10;4.13;;;23.10;52.90;;;;;;4901138;29;20092;-60
2021/07/22 00:19:14;;;;;;;7.03;4.00;;;23.10;52.90;;;;;;4901019;29;20035;-60
2021/07/22 00:21:39;;;;;;;8.05;4.13;;;23.10;52.90;;;;;;4899604;29;20031;-60
2021/07/22 00:24:05;;;;;;;7.93;4.50;;;23.20;53.00;;;;;;4900824;29;20087;-61
2021/07/22 00:26:31;;;;;;;7.38;4.05;;;23.10;53.00;;;;;;4900735;29;20021;-60
2021/07/22 00:28:59;;;;;;;6.88;4.13;;;23.10;53.00;;;;;;4900465;29;20024;-60
2021/07/22 00:31:25;;;;;;;7.68;4.53;;;23.10;53.00;;;;;;4900545;29;20079;-60
2021/07/22 00:33:50;;;;;;;7.30;4.07;;;23.10;53.00;;;;;;4900532;29;20024;-60
2021/07/22 00:36:16;;;;;;;7.95;4.10;;;23.10;53.00;;;;;;4900473;29;20039;-61
2021/07/22 00:38:42;;;;;;;7.15;4.07;;;23.10;53.10;;;;;;4900480;29;20033;-61
2021/07/22 00:41:11;;;;;;;7.50;4.65;;;23.00;53.10;;;;;;4900357;29;20039;-60
2021/07/22 00:43:38;;;;;;;8.90;4.88;;;23.10;53.10;;;;;;4900363;29;20380;-61
2021/07/22 00:46:04;;;;;;;6.63;4.00;;;23.10;53.10;;;;;;4900216;29;20020;-61
2021/07/22 00:48:29;;;;;;;7.75;4.30;;;23.10;53.10;;;;;;4900458;29;20469;-60
2021/07/22 00:50:55;;;;;;;8.52;4.40;;;23.10;53.20;;;;;;4900035;29;20047;-61
2021/07/22 00:53:20;;;;;;;7.55;4.20;;;23.00;53.20;;;;;;4900038;29;20077;-61
2021/07/22 00:55:46;;;;;;;8.55;4.80;;;23.10;53.20;;;;;;4900264;29;20392;-61
2021/07/22 00:58:11;;;;;;;7.63;4.38;;;23.00;53.20;;;;;;4900082;29;20028;-61
2021/07/22 01:00:37;;;;;;;7.72;4.32;;;23.10;53.20;;;;;;4899942;29;20032;-60
2021/07/22 01:03:02;;;;;;;7.72;4.18;;;23.00;53.20;;;;;;4899679;29;20119;-61
2021/07/22 01:05:28;;;;;;;7.63;4.50;;;23.00;53.30;;;;;;4900241;29;20033;-61
2021/07/22 01:07:53;;;;;;;8.50;4.38;;;23.00;53.30;;;;;;4899798;29;20454;-60
2021/07/22 01:10:18;;;;;;;6.90;3.92;;;23.00;53.30;;;;;;4898942;29;20037;-60
2021/07/22 01:12:44;;;;;;;7.97;4.40;;;23.00;53.30;;;;;;4899873;29;20492;-61
2021/07/22 01:15:10;;;;;;;7.78;4.20;;;23.00;53.30;;;;;;4899786;29;20433;-60
2021/07/22 01:17:46;;;;;;;7.40;4.13;;;23.00;53.40;;;;;;4899610;29;20089;-61
2021/07/22 01:20:18;;;;;;;7.90;4.40;;;23.00;53.40;;;;;;4899708;29;20059;-61
2021/07/22 01:22:45;;;;;;;7.93;4.78;;;23.00;53.40;;;;;;4898304;29;20055;-61
2021/07/22 01:25:11;;;;;;;7.80;4.57;;;23.00;53.40;;;;;;4900043;29;20029;-60
2021/07/22 01:27:37;;;;;;;8.20;4.65;;;23.00;53.50;;;;;;4899676;29;20031;-61
2021/07/22 01:30:04;;;;;;;7.30;4.60;;;23.00;53.50;;;;;;4899468;29;20400;-61
2021/07/22 01:32:29;;;;;;;7.55;4.13;;;23.00;53.50;;;;;;4899597;29;20033;-61
2021/07/22 01:34:54;;;;;;;7.82;4.32;;;23.00;53.50;;;;;;4898381;29;20437;-61
2021/07/22 01:37:20;;;;;;;7.93;3.95;;;22.90;53.50;;;;;;4899393;29;20025;-61
2021/07/22 01:39:46;;;;;;;6.90;4.30;;;23.00;53.60;;;;;;4898744;29;20055;-60
2021/07/22 01:42:11;;;;;;;7.95;4.32;;;22.90;53.60;;;;;;4906084;29;20025;-60
2021/07/22 01:44:37;;;;;;;7.57;4.25;;;23.00;53.60;;;;;;4906017;29;20028;-60
2021/07/22 01:47:04;;;;;;;6.68;3.95;;;22.90;53.60;;;;;;4906140;29;20033;-61
2021/07/22 01:49:30;;;;;;;8.00;4.55;;;22.90;53.70;;;;;;4903279;29;20029;-60
2021/07/22 01:51:55;;;;;;;7.00;3.90;;;22.90;53.60;;;;;;4899652;29;20040;-60
2021/07/22 01:54:21;;;;;;;8.95;4.43;;;22.90;53.70;;;;;;4899338;29;20024;-60
2021/07/22 01:56:47;;;;;;;8.05;4.45;;;22.90;53.70;;;;;;4898970;29;20036;-60
2021/07/22 01:59:12;;;;;;;7.03;4.28;;;22.90;53.70;;;;;;4898999;29;20060;-60
2021/07/22 02:01:38;;;;;;;7.57;4.38;;;22.90;53.80;;;;;;4899255;29;20021;-60
2021/07/22 02:04:03;;;;;;;7.85;4.32;;;22.90;53.80;;;;;;4898831;29;20056;-60
2021/07/22 02:06:30;;;;;;;7.78;4.20;;;22.90;53.80;;;;;;4897586;29;20024;-60
2021/07/22 02:08:56;;;;;;;6.90;4.00;;;22.90;53.80;;;;;;4897492;29;20164;-60
2021/07/22 02:11:21;;;;;;;7.72;4.40;;;22.90;53.80;;;;;;4898904;29;20131;-60
2021/07/22 02:13:47;;;;;;;8.63;4.78;;;22.80;53.90;;;;;;4898910;29;20035;-61
2021/07/22 02:16:12;;;;;;;7.60;4.32;;;22.90;53.90;;;;;;4898625;29;20057;-60
2021/07/22 02:18:38;;;;;;;8.55;4.40;;;22.90;53.90;;;;;;4898711;29;20425;-61
2021/07/22 02:21:08;;;;;;;7.88;4.45;;;22.80;53.90;;;;;;4898584;29;20040;-60
2021/07/22 02:23:36;;;;;;;7.95;4.20;;;22.90;53.90;;;;;;4904722;29;20040;-60
2021/07/22 02:26:06;;;;;;;8.18;4.47;;;22.90;53.90;;;;;;4898621;29;20037;-60
2021/07/22 02:28:31;;;;;;;7.60;4.45;;;22.80;54.00;;;;;;4898472;29;20023;-60
2021/07/22 02:30:57;;;;;;;6.97;3.83;;;22.80;53.90;;;;;;4898467;29;20040;-60
2021/07/22 02:33:22;;;;;;;7.50;4.53;;;22.80;54.00;;;;;;4898356;29;20033;-60
2021/07/22 02:35:48;;;;;;;6.88;4.00;;;22.80;54.00;;;;;;4898370;29;20033;-60
2021/07/22 02:38:13;;;;;;;7.88;4.47;;;22.80;54.00;;;;;;4898375;29;20036;-60
2021/07/22 02:40:39;;;;;;;8.05;4.65;;;22.80;54.00;;;;;;4898490;29;20452;-61
2021/07/22 02:43:06;;;;;;;7.60;4.30;;;22.80;54.10;;;;;;4898616;29;20033;-60
2021/07/22 02:45:31;;;;;;;8.52;4.65;;;22.80;54.10;;;;;;4898456;29;20084;-60
2021/07/22 02:47:57;;;;;;;7.75;4.65;;;22.80;54.10;;;;;;4898352;29;20434;-60
2021/07/22 02:50:23;;;;;;;6.53;4.10;;;22.80;54.10;;;;;;4898283;29;20063;-60
2021/07/22 02:52:48;;;;;;;7.75;4.40;;;22.80;54.20;;;;;;4898199;29;20080;-60
2021/07/22 02:55:14;;;;;;;8.35;4.30;;;22.80;54.20;;;;;;4898303;29;20075;-60
2021/07/22 02:57:39;;;;;;;6.72;4.07;;;22.80;54.30;;;;;;4897938;29;20516;-60
2021/07/22 03:00:06;;;;;;;6.47;3.85;;;22.80;54.30;;;;;;4898212;29;20032;-60
2021/07/22 03:02:31;;;;;;;6.35;3.95;;;22.70;54.20;;;;;;4897890;29;20041;-60
2021/07/22 03:04:57;;;;;;;6.97;4.00;;;22.80;54.30;;;;;;4897969;29;20046;-60
2021/07/22 03:07:22;;;;;;;7.72;4.60;;;22.80;54.20;;;;;;4898078;29;20081;-60
2021/07/22 03:09:49;;;;;;;7.65;4.30;;;22.80;54.20;;;;;;4897929;29;20116;-60
2021/07/22 03:12:14;;;;;;;7.40;3.95;;;22.80;54.30;;;;;;4897980;29;20032;-60
2021/07/22 03:14:40;;;;;;;7.70;3.95;;;22.70;54.30;;;;;;4898033;29;20017;-60
2021/07/22 03:17:05;;;;;;;6.95;3.90;;;22.70;54.30;;;;;;4898159;29;20039;-60
2021/07/22 03:19:31;;;;;;;7.35;4.20;;;22.70;54.30;;;;;;4897962;29;20481;-60
2021/07/22 03:21:56;;;;;;;7.97;4.55;;;22.70;54.40;;;;;;4898237;29;20032;-60
2021/07/22 03:24:22;;;;;;;7.43;4.50;;;22.70;54.30;;;;;;4897710;29;20071;-60
2021/07/22 03:26:47;;;;;;;7.47;4.07;;;22.70;54.40;;;;;;4897815;29;20080;-60
2021/07/22 03:29:13;;;;;;;8.32;4.40;;;22.70;54.40;;;;;;4897949;29;20016;-60
2021/07/22 03:31:38;;;;;;;7.45;4.20;;;22.70;54.40;;;;;;4897790;29;20044;-60
2021/07/22 03:34:04;;;;;;;7.88;4.65;;;22.70;54.40;;;;;;4900254;29;20048;-60
2021/07/22 03:36:31;;;;;;;6.97;4.18;;;22.70;54.40;;;;;;4902440;29;20033;-60
2021/07/22 03:38:57;;;;;;;7.80;3.85;;;22.70;54.40;;;;;;4911928;29;20107;-60
2021/07/22 03:41:24;;;;;;;7.22;3.90;;;22.70;54.50;;;;;;4901805;29;20158;-60
2021/07/22 03:43:50;;;;;;;7.50;4.30;;;22.70;54.50;;;;;;4900657;29;20028;-60
2021/07/22 03:46:15;;;;;;;7.22;4.47;;;22.70;54.50;;;;;;4901369;29;20032;-60
2021/07/22 03:48:41;;;;;;;7.15;3.97;;;22.70;54.40;;;;;;4901359;29;20025;-60
2021/07/22 03:51:06;;;;;;;6.80;4.00;;;22.70;54.50;;;;;;4901965;29;20075;-60
2021/07/22 03:53:32;;;;;;;8.15;4.75;;;22.70;54.50;;;;;;4901725;29;20021;-60
2021/07/22 03:56:00;;;;;;;8.00;4.13;;;22.70;54.50;;;;;;4901323;29;20037;-60
2021/07/22 03:58:25;;;;;;;8.65;4.68;;;22.70;54.50;;;;;;4901452;29;20119;-60
2021/07/22 04:00:54;;;;;;;7.63;4.03;;;22.70;54.50;;;;;;4900019;29;20067;-60
2021/07/22 04:03:20;;;;;;;7.55;4.53;;;22.70;54.50;;;;;;4900855;29;20754;-61
2021/07/22 04:05:45;;;;;;;7.78;4.05;;;22.70;54.50;;;;;;4901010;29;20032;-60
2021/07/22 04:08:11;;;;;;;7.60;4.38;;;22.70;54.50;;;;;;4900908;29;20406;-60
2021/07/22 04:10:36;;;;;;;8.25;4.68;;;22.70;54.60;;;;;;4903116;29;20051;-60
2021/07/22 04:13:02;;;;;;;9.02;4.80;;;22.70;54.60;;;;;;4907837;29;20035;-60
2021/07/22 04:15:29;;;;;;;7.90;4.50;;;22.60;54.60;;;;;;4908514;29;20378;-59
2021/07/22 04:17:55;;;;;;;7.70;4.05;;;22.60;54.60;;;;;;4901761;29;20492;-59
2021/07/22 04:20:22;;;;;;;7.15;3.97;;;22.60;54.60;;;;;;4900850;29;20124;-60
2021/07/22 04:22:48;;;;;;;7.93;4.63;;;22.60;54.60;;;;;;4900828;29;20033;-60
2021/07/22 04:25:14;;;;;;;6.97;4.18;;;22.60;54.60;;;;;;4900677;29;20029;-60
2021/07/22 04:27:41;;;;;;;8.50;4.38;;;22.70;54.70;;;;;;4900950;29;20142;-60
2021/07/22 04:30:07;;;;;;;6.90;4.10;;;22.60;54.60;;;;;;4900747;29;20037;-60
2021/07/22 04:32:33;;;;;;;8.02;4.43;;;22.60;54.60;;;;;;4906676;29;20485;-60
2021/07/22 04:34:58;;;;;;;9.45;4.50;;;22.60;54.60;;;;;;4905900;29;20037;-59
2021/07/22 04:37:24;;;;;;;8.18;4.32;;;22.60;54.70;;;;;;4900641;29;20028;-60
2021/07/22 04:39:49;;;;;;;7.45;4.05;;;22.60;54.70;;;;;;4900699;29;20531;-60
2021/07/22 04:42:15;;;;;;;6.60;3.55;;;22.60;54.70;;;;;;4900364;29;20032;-60
2021/07/22 04:44:40;;;;;;;7.70;3.90;;;22.60;54.70;;;;;;4899700;29;20025;-59
2021/07/22 04:47:05;;;;;;;8.38;4.72;;;22.60;54.70;;;;;;4898814;29;20040;-60
2021/07/22 04:49:31;;;;;;;7.18;3.92;;;22.60;54.70;;;;;;4900317;29;20107;-60
2021/07/22 04:51:58;;;;;;;7.60;3.92;;;22.60;54.70;;;;;;4899987;29;20397;-60
2021/07/22 04:54:24;;;;;;;8.38;4.50;;;22.60;54.70;;;;;;4900231;29;20024;-60
2021/07/22 04:56:49;;;;;;;8.93;4.07;;;22.60;54.70;;;;;;4900426;29;20036;-60
2021/07/22 04:59:15;;;;;;;7.85;4.38;;;22.60;54.70;;;;;;4900409;29;20048;-60
2021/07/22 05:01:40;;;;;;;7.47;4.22;;;22.60;54.70;;;;;;4900257;29;20031;-60
2021/07/22 05:04:07;;;;;;;7.30;4.10;;;22.60;54.70;;;;;;4900036;29;20185;-60
2021/07/22 05:06:33;;;;;;;9.18;3.97;;;22.60;54.70;;;;;;4899995;29;20040;-60
2021/07/22 05:08:59;;;;;;;6.93;4.20;;;22.60;54.70;;;;;;4899867;29;20564;-60
2021/07/22 05:11:25;;;;;;;7.72;4.75;;;22.50;54.70;;;;;;4899775;29;20085;-60
2021/07/22 05:13:50;;;;;;;7.28;3.95;;;22.60;54.80;;;;;;4899804;29;20052;-60
2021/07/22 05:16:16;;;;;;;7.55;3.95;;;22.60;54.70;;;;;;4899665;29;20043;-60
2021/07/22 05:18:41;;;;;;;8.23;4.07;;;22.60;54.80;;;;;;4898328;29;20020;-60
2021/07/22 05:21:07;;;;;;;7.75;4.30;;;22.60;54.80;;;;;;4899618;29;20103;-60
2021/07/22 05:23:33;;;;;;;7.72;4.30;;;22.60;54.70;;;;;;4899690;29;20028;-60
2021/07/22 05:26:03;;;;;;;7.30;4.25;;;22.60;54.80;;;;;;4899447;29;20040;-60
2021/07/22 05:28:29;;;;;;;6.88;3.78;;;22.60;54.70;;;;;;4899598;29;20041;-60
2021/07/22 05:30:55;;;;;;;7.32;4.38;;;22.60;54.80;;;;;;4899305;29;20067;-60
2021/07/22 05:33:20;;;;;;;7.20;4.00;;;22.60;54.70;;;;;;4899277;29;20096;-60
2021/07/22 05:35:46;;;;;;;7.72;4.15;;;22.60;54.70;;;;;;4899299;29;20036;-60
2021/07/22 05:41:01;;;;;;;8.07;4.30;;;22.60;54.70;;;;;;4899105;29;20081;-60
2021/07/22 05:43:27;;;;;;;8.52;4.72;;;22.60;54.80;;;;;;4899317;29;20037;-60
2021/07/22 05:45:54;;;;;;;8.23;4.68;;;22.60;54.80;;;;;;4898907;29;20033;-60
2021/07/22 05:48:19;;;;;;;7.55;4.30;;;22.60;54.80;;;;;;4898943;29;20387;-60
2021/07/22 05:50:46;;;;;;;6.30;3.63;;;22.60;54.80;;;;;;4898928;29;20037;-60
2021/07/22 05:53:11;;;;;;;6.72;3.78;;;22.60;54.80;;;;;;4899157;29;20092;-59
2021/07/22 05:55:37;;;;;;;6.85;3.80;;;22.70;54.80;;;;;;4898814;29;20389;-60
2021/07/22 05:58:02;;;;;;;7.47;4.45;;;22.60;54.70;;;;;;4898634;29;20025;-59
2021/07/22 06:00:28;;;;;;;7.72;4.30;;;22.60;54.80;;;;;;4899170;29;20029;-60
2021/07/22 06:02:53;;;;;;;8.57;4.47;;;22.60;54.80;;;;;;4903042;29;20068;-60
2021/07/22 06:05:19;;;;;;;7.65;4.30;;;22.60;54.80;;;;;;4899077;29;20507;-60
2021/07/22 06:07:46;;;;;;;7.07;4.10;;;22.60;54.80;;;;;;4898532;29;20024;-59
2021/07/22 06:10:12;;;;;;;6.47;3.80;;;22.60;54.80;;;;;;4898348;29;20176;-60
2021/07/22 06:12:38;;;;;;;7.50;3.97;;;22.60;54.80;;;;;;4898402;29;20486;-60
2021/07/22 06:15:04;;;;;;;7.75;4.20;;;22.60;54.80;;;;;;4898309;29;20121;-60
2021/07/22 06:17:29;;;;;;;7.25;4.18;;;22.60;54.80;;;;;;4896903;29;20036;-60
2021/07/22 06:19:55;;;;;;;8.00;4.28;;;22.60;54.80;;;;;;4898432;29;20088;-60
2021/07/22 06:22:20;;;;;;;8.88;4.22;;;22.60;54.70;;;;;;4898176;29;20108;-60
2021/07/22 06:24:46;;;;;;;7.45;4.20;;;22.70;54.60;;;;;;4898353;29;20073;-60
2021/07/22 06:27:12;;;;;;;7.97;4.60;;;22.70;54.50;;;;;;4898322;29;20036;-60
2021/07/22 06:29:39;;;;;;;7.18;4.15;;;22.70;54.60;;;;;;4898188;29;20048;-60
2021/07/22 06:32:04;;;;;;;7.68;4.28;;;22.70;54.60;;;;;;4898038;29;20040;-60
2021/07/22 06:34:30;;;;;;;7.45;4.45;;;22.70;54.60;;;;;;4898380;29;20030;-59
2021/07/22 06:36:55;;;;;;;7.63;4.22;;;22.70;54.60;;;;;;4897039;29;20437;-60
2021/07/22 06:39:21;;;;;;;6.93;3.88;;;22.70;54.60;;;;;;4898484;29;20039;-60
2021/07/22 06:41:46;;;;;;;7.68;4.35;;;22.70;54.60;;;;;;4898296;29;20394;-60
2021/07/22 06:44:12;;;;;;;6.80;3.50;;;22.70;54.70;;;;;;4899563;29;20029;-64
2021/07/22 06:46:37;;;;;;;10.32;4.45;;;22.70;54.60;;;;;;4905414;29;20033;-60
2021/07/22 06:49:03;;;;;;;7.72;4.65;;;22.70;54.70;;;;;;4905291;29;20027;-60
2021/07/22 06:51:28;;;;;;;6.93;3.90;;;22.70;54.70;;;;;;4903553;29;20043;-60
2021/07/22 06:53:54;;;;;;;7.30;4.03;;;22.70;54.70;;;;;;4902236;29;20100;-60
2021/07/22 06:56:20;;;;;;;7.30;4.53;;;22.70;54.70;;;;;;4900649;29;20028;-60
2021/07/22 06:58:48;;;;;;;7.32;3.85;;;22.70;54.70;;;;;;4898356;29;20113;-60
2021/07/22 07:01:14;;;;;;;7.50;4.20;;;22.70;54.70;;;;;;4898273;29;20115;-59
2021/07/22 07:03:40;;;;;;;7.75;4.10;;;22.70;54.70;;;;;;4883464;29;20430;-61
2021/07/22 07:06:05;;;;;;;6.90;3.90;;;22.70;54.70;;;;;;4878314;29;20036;-62
2021/07/22 07:08:31;;;;;;;7.30;3.95;;;22.70;54.70;;;;;;4878360;29;20017;-59
2021/07/22 07:10:56;;;;;;;6.40;3.58;;;22.70;54.70;;;;;;4879548;29;20069;-59
2021/07/22 07:13:22;;;;;;;6.72;3.75;;;22.70;54.80;;;;;;4878119;29;20064;-59
2021/07/22 07:15:47;;;;;;;8.95;4.20;;;22.70;54.80;;;;;;4879175;29;20033;-59
2021/07/22 07:18:13;;;;;;;7.68;3.92;;;22.70;54.90;;;;;;4879510;29;20285;-60
2021/07/22 07:20:38;;;;;;;6.88;3.72;;;22.70;54.80;;;;;;4879954;29;20097;-59
2021/07/22 07:23:04;;;;;;;8.50;4.05;;;22.70;54.90;;;;;;4879511;29;20089;-60
2021/07/22 07:25:29;;;;;;;7.60;4.05;;;22.70;54.80;;;;;;4879315;29;20033;-59
2021/07/22 07:27:55;;;;;;;7.03;4.10;;;22.80;54.80;;;;;;4880371;29;20165;-61
2021/07/22 07:30:21;;;;;;;8.07;4.50;;;22.80;54.80;;;;;;4878696;29;20092;-59
2021/07/22 07:32:52;;;;;;;7.97;4.32;;;22.80;54.90;;;;;;4878298;29;20557;-60
2021/07/22 07:35:18;;;;;;;8.95;5.00;;;22.70;54.90;;;;;;4878404;29;20030;-60
2021/07/22 07:37:43;;;;;;;7.93;4.10;;;22.80;54.90;;;;;;4878580;29;20496;-60
2021/07/22 07:40:09;;;;;;;8.68;4.32;;;22.80;54.90;;;;;;4878892;29;20524;-60
2021/07/22 07:42:37;;;;;;;7.88;4.10;;;22.80;54.90;;;;;;4880593;29;20109;-60
2021/07/22 07:45:04;;;;;;;7.63;4.20;;;22.80;54.90;;;;;;4880756;29;20458;-59
2021/07/22 07:47:29;;;;;;;8.20;4.43;;;22.80;54.90;;;;;;4880016;29;20104;-59
2021/07/22 07:49:55;;;;;;;8.20;4.50;;;22.80;54.90;;;;;;4878750;29;20117;-59
2021/07/22 07:52:20;;;;;;;7.35;3.90;;;22.80;54.90;;;;;;4878748;29;20041;-59
2021/07/22 07:54:51;;;;;;;9.85;3.97;;;22.80;54.90;;;;;;4878815;29;20059;-60
2021/07/22 07:57:16;;;;;;;7.75;4.25;;;22.90;54.90;;;;;;4878725;29;20079;-60
2021/07/22 07:59:42;;;;;;;8.00;4.47;;;22.90;54.90;;;;;;4878517;29;20493;-60
2021/07/22 08:02:08;;;;;;;7.70;4.38;;;22.90;54.90;;;;;;4878557;29;20539;-59
2021/07/22 08:04:35;;;;;;;7.47;3.95;;;22.90;54.90;;;;;;4878933;29;20033;-59
2021/07/22 08:07:00;;;;;;;6.53;3.83;;;22.90;54.90;;;;;;4878581;29;20092;-60
2021/07/22 08:09:26;;;;;;;9.38;4.43;;;22.90;54.90;;;;;;4878412;29;20021;-60
2021/07/22 08:11:52;;;;;;;7.35;3.90;;;22.90;54.80;;;;;;4878319;29;20045;-59
2021/07/22 08:14:17;;;;;;;7.57;3.85;;;22.90;54.80;;;;;;4877101;29;20036;-56
2021/07/22 08:16:45;;;;;;;6.47;4.03;;;22.90;54.80;;;;;;4878590;29;20036;-58
2021/07/22 08:19:10;;;;;;;7.25;3.20;;;22.90;54.80;;;;;;4877975;29;20025;-58
2021/07/22 08:21:36;;;;;;;7.05;4.07;;;22.90;54.90;;;;;;4881360;29;20088;-58
2021/07/22 08:24:01;;;;;;;7.22;3.88;;;22.90;54.90;;;;;;4880938;29;20033;-59
2021/07/22 08:26:27;;;;;;;7.82;4.03;;;23.00;54.90;;;;;;4879724;29;20496;-58
2021/07/22 08:28:52;;;;;;;7.18;3.78;;;23.00;54.90;;;;;;4879491;29;20037;-57
2021/07/22 08:31:19;;;;;;;6.97;3.83;;;23.00;54.90;;;;;;4881671;29;20041;-58
2021/07/22 08:33:44;;;;;;;7.32;3.95;;;23.00;54.80;;;;;;4882967;29;20029;-58
2021/07/22 08:36:10;;;;;;;9.75;4.70;;;23.00;54.80;;;;;;4882993;29;20081;-58
2021/07/22 08:38:36;;;;;;;7.22;3.45;;;23.00;54.80;;;;;;4881583;29;20070;-58
2021/07/22 08:41:02;;;;;;;7.82;4.07;;;23.00;54.80;;;;;;4879870;29;20359;-58
2021/07/22 08:43:28;;;;;;;7.00;4.03;;;23.00;54.80;;;;;;4881436;29;20497;-58
2021/07/22 08:45:55;;;;;;;11.45;4.25;;;23.00;54.80;;;;;;4881136;29;20037;-58
2021/07/22 08:48:21;;;;;;;6.70;3.80;;;23.00;54.80;;;;;;4881170;29;20104;-58
2021/07/22 08:50:48;;;;;;;7.35;4.18;;;23.00;54.70;;;;;;4880935;29;20124;-58
2021/07/22 08:53:15;;;;;;;7.25;3.75;;;23.10;54.70;;;;;;4881315;29;20029;-58
2021/07/22 08:55:45;;;;;;;6.78;3.38;;;23.00;54.70;;;;;;4881177;29;20120;-58
2021/07/22 08:58:10;;;;;;;7.72;3.90;;;23.10;54.70;;;;;;4881180;29;20021;-58
2021/07/22 09:00:37;;;;;;;8.82;4.60;;;23.00;54.70;;;;;;4880992;29;20040;-58
2021/07/22 09:03:03;;;;;;;7.03;4.00;;;23.10;54.60;;;;;;4880686;29;20505;-58
2021/07/22 09:05:29;;;;;;;8.18;4.47;;;23.10;54.60;;;;;;4879578;29;20048;-58
2021/07/22 09:07:55;;;;;;;6.88;3.50;;;23.10;54.60;;;;;;4880677;29;20478;-58
2021/07/22 09:10:21;;;;;;;6.82;3.85;;;23.10;54.70;;;;;;4880608;29;20033;-58
2021/07/22 09:12:52;;;;;;;5.70;3.20;;;23.10;54.60;;;;;;4880746;29;20393;-58
2021/07/22 09:15:32;;;;;;;6.78;3.70;;;23.10;54.60;;;;;;4878488;29;20024;-58
2021/07/22 09:17:58;;;;;;;6.82;3.53;;;23.20;54.60;;;;;;4880564;29;20567;-58
2021/07/22 09:20:37;;;;;;;6.97;4.20;;;23.20;54.50;;;;;;4880569;29;20084;-58
2021/07/22 09:23:04;;;;;;;7.05;3.55;;;23.20;54.50;;;;;;4879226;29;20382;-58
2021/07/22 09:25:44;;;;;;;7.35;3.75;;;23.20;54.50;;;;;;4880424;29;20029;-58
2021/07/22 09:28:14;;;;;;;6.60;3.45;;;23.20;54.50;;;;;;4880510;29;20041;-58
2021/07/22 09:30:59;;;;;;;6.03;3.30;;;23.20;54.60;;;;;;4880241;29;20481;-57
2021/07/22 09:33:32;;;;;;;7.38;4.35;;;23.20;54.50;;;;;;4880355;29;20025;-58
2021/07/22 09:35:57;;;;;;;5.72;3.00;;;23.20;54.60;;;;;;4879112;29;20474;-57
2021/07/22 09:38:27;;;;;;;11.73;3.90;;;23.20;54.60;;;;;;4880317;29;20037;-58
2021/07/22 09:40:53;;;;;;;7.53;3.47;;;23.20;54.60;;;;;;4880804;29;20040;-59
2021/07/22 09:43:44;;;;;;;5.93;3.38;;;23.20;54.60;;;;;;4880346;29;20032;-59
2021/07/22 09:46:09;;;;;;;6.53;3.08;;;23.30;54.50;;;;;;4880278;29;20401;-59
2021/07/22 09:48:36;;;;;;;7.05;3.50;;;23.30;54.50;;;;;;4880191;29;20029;-59
2021/07/22 09:51:02;;;;;;;5.93;3.33;;;23.20;54.50;;;;;;4880132;29;20037;-62
2021/07/22 09:53:28;;;;;;;6.18;3.33;;;23.30;54.60;;;;;;4880292;29;20040;-57
2021/07/22 09:55:55;;;;;;;6.07;3.20;;;23.30;54.50;;;;;;4880334;29;20153;-59
2021/07/22 09:58:21;;;;;;;6.07;2.92;;;23.30;54.50;;;;;;4880405;29;20061;-57
2021/07/22 10:00:49;;;;;;;6.40;3.45;;;23.30;54.50;;;;;;4880166;29;20505;-57
2021/07/22 10:03:19;;;;;;;7.05;3.95;;;23.30;54.50;;;;;;4879903;29;20064;-58
2021/07/22 10:05:54;;;;;;;5.18;3.03;;;23.30;54.50;;;;;;4880495;29;20036;-58
2021/07/22 10:08:20;;;;;;;5.40;2.90;;;23.30;54.50;;;;;;4879981;29;20178;-58
2021/07/22 10:10:50;;;;;;;6.68;3.20;;;23.40;54.50;;;;;;4879946;29;20165;-57
2021/07/22 10:13:16;;;;;;;6.15;3.15;;;23.40;54.50;;;;;;4880418;29;20040;-58
2021/07/22 10:15:44;;;;;;;7.47;3.35;;;23.40;54.50;;;;;;4880144;29;20025;-59
2021/07/22 10:18:10;;;;;;;7.22;3.92;;;23.40;54.50;;;;;;4880581;29;20021;-59
2021/07/22 10:20:36;;;;;;;7.10;4.00;;;23.40;54.50;;;;;;4881705;29;20035;-59
2021/07/22 10:23:03;;;;;;;8.82;3.60;;;23.40;54.40;;;;;;4888344;29;20119;-59
2021/07/22 10:25:28;;;;;;;7.07;3.78;;;23.40;54.50;;;;;;4885042;29;20025;-59
2021/07/22 10:27:58;;;;;;;6.07;3.33;;;23.40;54.50;;;;;;4880999;29;20096;-59
2021/07/22 10:30:25;;;;;;;8.27;4.00;;;23.50;54.40;;;;;;4879745;29;20060;-58
2021/07/22 10:32:58;;;;;;;7.50;3.65;;;23.50;54.40;;;;;;4878798;29;20493;-58
2021/07/22 10:35:27;;;;;;;6.10;3.17;;;23.50;54.40;;;;;;4880677;29;20033;-58
2021/07/22 10:38:14;;;;;;;8.00;3.90;;;23.50;54.40;;;;;;4889073;29;20033;-59
2021/07/22 10:40:59;;;;;;;6.15;3.40;;;23.50;54.30;;;;;;4887807;29;20033;-59
2021/07/22 10:43:35;;;;;;;5.88;3.45;;;23.50;54.30;;;;;;4878685;29;20033;-59
2021/07/22 10:46:01;;;;;;;6.50;3.28;;;23.50;54.30;;;;;;4880251;29;20033;-59
2021/07/22 10:48:27;;;;;;;5.97;2.72;;;23.50;54.20;;;;;;4879492;29;20036;-59
2021/07/22 10:50:59;;;;;;;5.53;3.03;;;23.50;54.30;;;;;;4879004;29;20040;-59
2021/07/22 10:53:39;;;;;;;6.07;3.05;;;23.50;54.30;;;;;;4878226;29;20033;-59
2021/07/22 10:56:06;;;;;;;7.03;3.50;;;23.60;54.30;;;;;;4879171;29;20377;-60
2021/07/22 10:58:35;;;;;;;6.60;3.25;;;23.50;54.30;;;;;;4879079;29;20093;-59
2021/07/22 11:01:05;;;;;;;6.80;3.45;;;23.60;54.30;;;;;;4878503;29;20026;-60
2021/07/22 11:03:33;;;;;;;6.07;3.00;;;23.60;54.30;;;;;;4878093;29;20080;-58
2021/07/22 11:06:03;;;;;;;6.28;3.60;;;23.70;54.30;;;;;;4879428;29;20040;-61
2021/07/22 11:08:29;;;;;;;8.45;4.18;;;23.70;54.30;;;;;;4878802;29;20025;-60
2021/07/22 11:10:56;;;;;;;6.32;3.50;;;23.60;54.30;;;;;;4878477;29;20501;-60
2021/07/22 11:13:37;;;;;;;7.53;3.70;;;23.60;54.40;;;;;;4878017;29;20045;-59
2021/07/22 11:16:09;;;;;;;7.15;3.90;;;23.60;54.40;;;;;;4878517;29;20041;-60
2021/07/22 11:18:43;;;;;;;8.30;3.53;;;23.60;54.40;;;;;;4878725;29;20529;-60
2021/07/22 11:21:09;;;;;;;;;;;23.60;54.50;;;;;;4878851;29;20037;-61
2021/07/22 11:23:35;;;;;;;7.50;4.28;;;23.60;54.50;;;;;;4877799;29;19908;-61
2021/07/22 11:26:01;;;;;;;7.47;4.10;;;23.60;54.50;;;;;;4878429;29;20359;-60
2021/07/22 11:28:27;;;;;;;6.35;3.47;;;23.60;54.60;;;;;;4878319;29;20029;-60
2021/07/22 11:31:04;;;;;;;6.50;3.15;;;23.70;54.60;;;;;;4878010;29;20037;-60
2021/07/22 11:33:35;;;;;;;7.85;4.00;;;23.70;54.50;;;;;;4877991;29;20112;-61
2021/07/22 11:36:06;;;;;;;7.93;4.10;;;23.70;54.40;;;;;;4878380;29;20380;-60
2021/07/22 11:38:33;;;;;;;9.70;4.13;;;23.70;54.40;;;;;;4878267;29;20105;-59
2021/07/22 11:40:59;;;;;;;7.18;3.72;;;23.80;54.40;;;;;;4878417;29;20044;-60
2021/07/22 11:43:36;;;;;;;5.90;3.35;;;23.80;54.30;;;;;;4879040;29;20025;-60
2021/07/22 11:46:02;;;;;;;6.45;3.53;;;23.90;54.20;;;;;;4884680;29;20605;-60
2021/07/22 11:48:28;;;;;;;8.57;3.97;;;23.90;54.20;;;;;;4882146;29;20473;-61
2021/07/22 11:51:01;;;;;;;7.22;3.90;;;23.80;54.40;;;;;;4882927;29;20040;-60
2021/07/22 11:53:28;;;;;;;5.93;2.45;;;23.80;54.40;;;;;;4878502;29;20031;-60
2021/07/22 11:55:54;;;;;;;6.32;3.45;;;23.80;54.40;;;;;;4880615;29;20021;-59
2021/07/22 11:58:19;;;;;;;7.30;3.80;;;23.80;54.40;;;;;;4882372;29;20529;-59
2021/07/22 12:00:45;;;;;;;10.05;3.60;;;23.80;54.50;;;;;;4882172;29;20175;-58
2021/07/22 12:03:11;;;;;;;6.75;3.30;;;23.80;54.50;;;;;;4882009;29;20505;-58
2021/07/22 12:05:37;;;;;;;7.45;3.63;;;23.80;54.40;;;;;;4882070;29;20089;-60
2021/07/22 12:08:16;;;;;;;5.32;2.90;;;23.90;54.30;;;;;;4882026;29;20025;-60
2021/07/22 12:10:43;;;;;;;5.40;2.88;;;23.90;54.20;;;;;;4882130;29;20055;-60
2021/07/22 12:13:08;;;;;;;5.88;2.92;;;24.00;54.20;;;;;;4882390;29;20072;-60
2021/07/22 12:15:35;;;;;;;6.05;3.25;;;24.00;54.20;;;;;;4882524;29;20025;-60
2021/07/22 12:18:01;;;;;;;7.35;3.60;;;24.00;54.20;;;;;;4882039;29;20390;-60
2021/07/22 12:20:27;;;;;;;5.28;3.03;;;24.00;54.20;;;;;;4882405;29;20061;-60
2021/07/22 12:22:53;;;;;;;7.00;4.00;;;24.00;54.30;;;;;;4881944;29;20485;-60
2021/07/22 12:25:18;;;;;;;6.18;3.33;;;24.00;54.30;;;;;;4881735;29;20041;-60
2021/07/22 12:27:47;;;;;;;8.60;3.65;;;24.00;54.30;;;;;;4881351;29;20040;-61
2021/07/22 12:30:17;;;;;;;7.63;4.13;;;24.00;54.20;;;;;;4879301;29;20033;-60
2021/07/22 12:32:58;;;;;;;6.75;3.35;;;24.10;54.10;;;;;;4881117;29;20488;-58
2021/07/22 12:35:30;;;;;;;6.15;3.30;;;24.20;53.90;;;;;;4881079;29;20036;-60
2021/07/22 12:38:07;;;;;;;6.32;3.60;;;24.20;53.90;;;;;;4880676;29;20108;-59
2021/07/22 12:40:44;;;;;;;7.75;2.45;;;24.20;54.10;;;;;;4881163;29;20116;-59
2021/07/22 12:43:18;;;;;;;5.95;2.92;;;24.20;54.00;;;;;;4887861;29;20077;-58
2021/07/22 12:45:49;;;;;;;8.65;3.70;;;24.30;53.90;;;;;;4881124;29;20100;-59
2021/07/22 12:48:15;;;;;;;7.78;4.03;;;24.30;53.90;;;;;;4880497;29;20116;-59
2021/07/22 12:50:43;;;;;;;6.68;4.07;;;24.40;53.90;;;;;;4880773;29;20430;-59